createdAt,value
2023-03-08T00:00:34.178Z,8.88
2023-03-08T00:05:39.377Z,9.18
2023-03-08T00:10:44.081Z,8.52
2023-03-08T00:15:47.406Z,7.97
2023-03-08T00:21:00.296Z,7.57
2023-03-08T00:26:05.108Z,7.93
2023-03-08T00:31:10.396Z,8.13
2023-03-08T00:36:16.618Z,8.57
2023-03-08T00:41:21.641Z,8.00
2023-03-08T00:51:29.409Z,8.05
2023-03-08T00:56:34.144Z,7.20
2023-03-08T01:01:37.531Z,7.07
2023-03-08T01:06:40.894Z,6.88
2023-03-08T01:11:45.541Z,3.25
2023-03-08T01:16:48.757Z,3.45
2023-03-08T01:21:52.042Z,2.08
2023-03-08T01:26:59.092Z,0.73
2023-03-08T01:32:02.302Z,0.50
2023-03-08T01:37:06.126Z,0.52
2023-03-08T01:42:11.009Z,0.80
2023-03-08T01:52:27.222Z,1.60
2023-03-08T01:57:34.585Z,1.27
2023-03-08T02:02:42.698Z,1.40
2023-03-08T02:07:45.850Z,1.40
2023-03-08T02:12:50.480Z,1.60
2023-03-08T02:17:53.695Z,1.38
2023-03-08T02:23:08.935Z,1.73
2023-03-08T02:28:12.217Z,1.60
2023-03-08T02:33:15.540Z,1.17
2023-03-08T02:38:21.889Z,1.20
2023-03-08T02:43:25.433Z,1.10
2023-03-08T02:48:28.801Z,1.10
2023-03-08T02:53:33.497Z,0.68
2023-03-08T02:58:36.795Z,0.77
2023-03-08T03:03:40.353Z,0.60
2023-03-08T03:08:45.154Z,0.60
2023-03-08T03:18:51.327Z,0.65
2023-03-08T03:23:57.049Z,0.82
2023-03-08T03:29:00.765Z,0.93
2023-03-08T03:34:04.082Z,1.10
2023-03-08T03:39:08.796Z,1.30
2023-03-08T03:44:12.014Z,1.33
2023-03-08T03:49:15.192Z,1.30
2023-03-08T03:54:19.873Z,1.52
2023-03-08T03:59:25.661Z,1.60
2023-03-08T04:04:29.768Z,2.40
2023-03-08T04:09:34.737Z,2.25
2023-03-08T04:14:39.755Z,1.80
2023-03-08T04:19:42.958Z,1.70
2023-03-08T04:24:47.599Z,2.20
2023-03-08T04:29:50.802Z,2.78
2023-03-08T04:34:54.096Z,2.47
2023-03-08T04:39:58.697Z,2.00
2023-03-08T04:45:01.992Z,2.15
2023-03-08T04:50:05.795Z,2.30
2023-03-08T04:55:10.990Z,2.10
2023-03-08T05:00:15.302Z,2.63
2023-03-08T05:05:18.747Z,2.53
2023-03-08T05:10:23.410Z,2.10
2023-03-08T05:15:26.800Z,2.40
2023-03-08T05:20:30.121Z,2.08
2023-03-08T05:25:34.976Z,2.70
2023-03-08T05:35:41.231Z,2.33
2023-03-08T05:40:45.839Z,2.70
2023-03-08T05:45:57.163Z,2.47
2023-03-08T05:51:00.788Z,2.15
2023-03-08T05:56:11.522Z,2.33
2023-03-08T06:01:17.022Z,2.30
2023-03-08T06:06:21.669Z,2.28
2023-03-08T06:11:26.597Z,2.15
2023-03-08T06:16:29.891Z,2.08
2023-03-08T06:21:33.129Z,2.38
2023-03-08T06:26:37.766Z,2.03
2023-03-08T06:31:41.144Z,2.20
2023-03-08T06:36:44.612Z,2.03
2023-03-08T06:41:49.260Z,2.53
2023-03-08T06:46:52.531Z,2.22
2023-03-08T06:51:55.758Z,2.08
2023-03-08T06:57:00.434Z,2.50
2023-03-08T07:02:03.714Z,1.85
2023-03-08T07:07:08.166Z,1.52
2023-03-08T07:12:12.868Z,1.17
2023-03-08T07:17:16.170Z,1.23
2023-03-08T07:22:19.345Z,1.00
2023-03-08T07:27:24.008Z,0.60
2023-03-08T07:32:29.269Z,0.52
2023-03-08T07:37:32.617Z,0.30
2023-03-08T07:42:37.254Z,0.38
2023-03-08T07:47:40.692Z,0.50
2023-03-08T07:52:43.964Z,0.30
2023-03-08T07:57:48.668Z,0.30
2023-03-08T08:02:54.487Z,0.40
2023-03-08T08:07:57.707Z,0.40
2023-03-08T08:13:02.359Z,0.50
2023-03-08T08:18:05.993Z,0.40
2023-03-08T08:23:09.521Z,0.38
2023-03-08T08:28:14.219Z,0.30
2023-03-08T08:33:17.475Z,0.40
2023-03-08T08:38:20.895Z,0.50
2023-03-08T08:43:25.559Z,0.40
2023-03-08T08:53:32.393Z,1.15
2023-03-08T08:58:37.080Z,0.88
2023-03-08T09:03:40.323Z,0.85
2023-03-08T09:08:43.580Z,0.75
2023-03-08T09:13:48.314Z,0.95
2023-03-08T09:18:52.168Z,0.70
2023-03-08T09:23:55.808Z,0.80
2023-03-08T09:29:05.208Z,0.77
2023-03-08T09:34:09.958Z,0.60
2023-03-08T09:44:49.651Z,0.73
2023-03-08T09:49:56.734Z,1.60
2023-03-08T09:55:01.097Z,1.70
2023-03-08T10:00:11.849Z,2.25
2023-03-08T10:05:21.169Z,1.58
2023-03-08T10:10:41.456Z,1.73
2023-03-08T10:15:51.249Z,1.13
2023-03-08T10:20:54.969Z,1.17
2023-03-08T10:25:58.091Z,2.10
2023-03-08T10:31:04.849Z,1.60
2023-03-08T10:36:12.876Z,1.92
2023-03-08T10:41:18.827Z,2.35
2023-03-08T10:46:25.498Z,1.20
2023-03-08T10:51:30.460Z,1.50
2023-03-08T10:56:38.993Z,1.75
2023-03-08T11:01:52.671Z,0.98
2023-03-08T11:06:55.860Z,0.80
2023-03-08T11:12:00.255Z,0.63
2023-03-08T11:17:17.147Z,0.80
2023-03-08T11:22:34.716Z,1.40
2023-03-08T11:27:55.101Z,1.90
2023-03-08T11:33:23.600Z,1.80
2023-03-08T11:38:29.076Z,1.40
2023-03-08T11:43:49.156Z,1.67
2023-03-08T11:49:04.497Z,1.55
2023-03-08T11:54:18.165Z,1.20
2023-03-08T11:59:30.516Z,1.15
2023-03-08T12:04:40.755Z,1.25
2023-03-08T12:09:53.164Z,1.23
2023-03-08T12:15:00.696Z,1.10
2023-03-08T12:20:08.319Z,1.13
2023-03-08T12:25:22.235Z,0.82
2023-03-08T12:30:36.670Z,0.90
2023-03-08T12:35:52.861Z,1.10
2023-03-08T12:40:56.900Z,0.80
2023-03-08T12:46:06.445Z,0.60
2023-03-08T12:51:24.195Z,0.68
2023-03-08T12:56:31.804Z,0.60
2023-03-08T13:01:38.744Z,0.40
2023-03-08T13:07:19.272Z,0.60
2023-03-08T13:12:29.250Z,0.50
2023-03-08T13:17:39.505Z,0.68
2023-03-08T13:22:55.905Z,0.55
2023-03-08T13:28:05.130Z,0.70
2023-03-08T13:33:10.677Z,0.75
2023-03-08T13:38:23.190Z,0.80
2023-03-08T13:43:27.773Z,1.00
2023-03-08T13:48:34.938Z,1.50
2023-03-08T13:53:40.497Z,1.30
2023-03-08T13:58:48.596Z,1.27
2023-03-08T14:03:52.695Z,1.05
2023-03-08T14:09:00.675Z,0.80
2023-03-08T14:14:07.333Z,0.73
2023-03-08T14:19:12.599Z,0.70
2023-03-08T14:24:22.507Z,0.95
2023-03-08T14:29:27.241Z,0.68
2023-03-08T14:39:40.700Z,0.50
2023-03-08T14:44:44.188Z,1.02
2023-03-08T14:49:56.905Z,0.60
2023-03-08T14:55:03.384Z,0.68
2023-03-08T15:00:14.267Z,0.90
2023-03-08T15:05:28.401Z,0.63
2023-03-08T15:10:38.054Z,0.60
2023-03-08T15:15:41.196Z,0.60
2023-03-08T15:20:49.478Z,0.70
2023-03-08T15:25:54.561Z,0.63
2023-03-08T15:30:57.790Z,0.68
2023-03-08T15:36:01.012Z,0.80
2023-03-08T15:41:05.805Z,0.70
2023-03-08T15:51:19.610Z,0.60
2023-03-08T15:56:26.094Z,0.73
2023-03-08T16:01:29.273Z,0.40
2023-03-08T16:06:32.429Z,0.52
2023-03-08T16:11:36.933Z,0.80
2023-03-08T16:16:45.586Z,0.70
2023-03-08T16:21:49.140Z,0.40
2023-03-08T16:26:53.701Z,0.45
2023-03-08T16:31:58.586Z,0.50
2023-03-08T16:37:01.774Z,0.77
2023-03-08T16:42:06.470Z,0.65
2023-03-08T16:52:12.924Z,1.33
2023-03-08T16:57:20.111Z,2.30
2023-03-08T17:02:23.520Z,2.97
2023-03-08T17:07:26.636Z,3.47
2023-03-08T17:12:31.233Z,3.35
2023-03-08T17:17:34.382Z,4.03
2023-03-08T17:22:37.504Z,4.88
2023-03-08T17:27:42.060Z,5.10
2023-03-08T17:32:45.199Z,4.15
2023-03-08T17:37:50.190Z,4.95
2023-03-08T17:42:56.760Z,4.32
2023-03-08T17:48:02.816Z,4.07
2023-03-08T17:53:06.059Z,4.55
2023-03-08T17:58:10.851Z,4.97
2023-03-08T18:08:16.903Z,5.60
2023-03-08T18:13:21.440Z,4.97
2023-03-08T18:18:24.596Z,4.90
2023-03-08T18:23:29.681Z,4.60
2023-03-08T18:28:35.848Z,4.68
2023-03-08T18:33:39.420Z,4.85
2023-03-08T18:38:43.193Z,5.40
2023-03-08T18:43:47.729Z,5.53
2023-03-08T18:48:52.116Z,5.30
2023-03-08T18:53:56.049Z,5.63
2023-03-08T18:59:02.963Z,5.37
2023-03-08T19:04:08.120Z,4.63
2023-03-08T19:09:12.626Z,5.10
2023-03-08T19:14:18.173Z,5.13
2023-03-08T19:19:21.441Z,4.95
2023-03-08T19:24:24.669Z,5.07
2023-03-08T19:29:31.387Z,5.40
2023-03-08T19:34:36.486Z,4.90
2023-03-08T19:39:39.669Z,4.43
2023-03-08T19:44:48.387Z,5.10
2023-03-08T19:49:51.663Z,5.97
2023-03-08T19:54:54.968Z,5.15
2023-03-08T20:00:01.367Z,5.45
2023-03-08T20:05:04.713Z,6.63
2023-03-08T20:10:16.116Z,6.05
2023-03-08T20:15:21.028Z,5.72
2023-03-08T20:20:24.316Z,4.70
2023-03-08T20:25:27.771Z,6.07
2023-03-08T20:30:32.324Z,5.50
2023-03-08T20:35:35.528Z,5.97
2023-03-08T20:40:39.774Z,5.32
2023-03-08T20:45:44.427Z,5.07
2023-03-08T20:50:47.665Z,5.70
2023-03-08T20:55:50.785Z,5.72
2023-03-08T21:00:55.308Z,5.82
2023-03-08T21:05:58.405Z,5.00
2023-03-08T21:11:01.508Z,4.97
2023-03-08T21:16:08.608Z,5.63
2023-03-08T21:21:18.806Z,5.05
2023-03-08T21:26:22.450Z,5.43
2023-03-08T21:31:27.044Z,5.30
2023-03-08T21:36:30.296Z,5.15
2023-03-08T21:41:35.208Z,4.13
2023-03-08T21:46:40.735Z,5.75
2023-03-08T21:51:43.961Z,5.90
2023-03-08T21:56:47.329Z,5.45
2023-03-08T22:01:54.208Z,6.22
2023-03-08T22:06:57.481Z,5.07
2023-03-08T22:12:00.638Z,6.30
2023-03-08T22:17:05.206Z,6.10
2023-03-08T22:22:09.993Z,6.53
2023-03-08T22:32:18.529Z,5.75
2023-03-08T22:37:21.696Z,6.25
2023-03-08T22:42:24.862Z,6.13
2023-03-08T22:47:29.580Z,6.00
2023-03-08T22:52:32.877Z,5.63
2023-03-08T22:57:37.598Z,5.93
2023-03-08T23:02:42.404Z,5.95
2023-03-08T23:07:45.672Z,5.82
2023-03-08T23:12:48.919Z,5.70
2023-03-08T23:17:53.500Z,5.28
2023-03-08T23:22:56.662Z,6.10
2023-03-08T23:27:59.821Z,5.80
2023-03-08T23:33:04.374Z,6.32
2023-03-08T23:38:07.512Z,5.88
2023-03-08T23:43:10.662Z,6.07
2023-03-08T23:48:15.233Z,6.53
2023-03-08T23:53:18.491Z,6.13
2023-03-08T23:58:21.603Z,6.50
